createdAt,value
2022-08-02T06:12:50.515Z,19.12
2022-08-02T06:15:27.887Z,19.15
2022-08-02T06:18:05.312Z,19.15
2022-08-02T06:20:43.593Z,19.20
2022-08-02T06:23:24.803Z,19.33
2022-08-02T06:26:02.957Z,19.36
2022-08-02T06:28:44.552Z,19.38
2022-08-02T06:31:22.294Z,19.33
2022-08-02T06:33:59.049Z,19.36
2022-08-02T06:36:45.482Z,19.44
2022-08-02T06:39:28.552Z,19.52
2022-08-02T06:42:26.866Z,19.56
2022-08-02T06:45:08.866Z,19.61
2022-08-02T06:47:45.925Z,19.58
2022-08-02T06:50:22.947Z,19.61
2022-08-02T06:53:00.950Z,19.60
2022-08-02T06:55:43.884Z,19.62
2022-08-02T06:58:21.342Z,19.69
2022-08-02T07:01:02.923Z,19.72
2022-08-02T07:03:40.491Z,19.75
2022-08-02T07:06:18.102Z,19.83
2022-08-02T07:09:19.574Z,19.84
2022-08-02T07:11:52.298Z,19.87
2022-08-02T07:14:29.783Z,19.88
2022-08-02T07:17:11.625Z,19.86
2022-08-02T07:19:50.185Z,19.85
2022-08-02T07:22:28.611Z,19.86
2022-08-02T07:25:06.475Z,19.83
2022-08-02T07:27:43.548Z,19.87
2022-08-02T07:30:20.657Z,19.90
2022-08-02T07:32:59.965Z,19.91
2022-08-02T07:35:37.140Z,19.93
2022-08-02T07:38:16.599Z,19.96
2022-08-02T07:40:55.274Z,20.01
2022-08-02T07:43:32.316Z,20.07
2022-08-02T07:46:09.386Z,20.12
2022-08-02T07:48:53.753Z,20.16
2022-08-02T07:51:31.972Z,20.20
2022-08-02T07:54:09.254Z,20.20
2022-08-02T07:56:47.110Z,20.28
2022-08-02T07:59:27.631Z,20.29
2022-08-02T08:02:04.887Z,20.36
2022-08-02T08:04:44.353Z,20.39
2022-08-02T08:07:21.503Z,20.42
2022-08-02T08:09:59.252Z,20.42
2022-08-02T08:12:36.402Z,20.50
2022-08-02T08:15:14.484Z,20.53
2022-08-02T08:17:51.611Z,20.61
2022-08-02T08:20:31.262Z,20.68
2022-08-02T08:23:08.401Z,20.68
2022-08-02T08:25:45.152Z,20.69
2022-08-02T08:28:22.561Z,20.75
2022-08-02T08:30:59.424Z,20.81
2022-08-02T08:33:36.511Z,20.88
2022-08-02T08:36:17.001Z,20.95
2022-08-02T08:38:54.371Z,20.99
2022-08-02T08:41:31.251Z,21.02
2022-08-02T08:44:08.920Z,21.03
2022-08-02T08:46:48.932Z,21.12
2022-08-02T08:49:34.553Z,21.27
2022-08-02T08:52:17.462Z,21.30
2022-08-02T08:54:54.682Z,21.40
2022-08-02T08:57:34.073Z,21.47
2022-08-02T09:00:13.592Z,21.53
2022-08-02T09:02:50.682Z,21.65
2022-08-02T09:05:28.412Z,21.75
2022-08-02T09:08:11.265Z,21.92
2022-08-02T09:10:52.632Z,22.05
2022-08-02T09:13:45.208Z,22.14
2022-08-02T09:16:33.997Z,22.30
2022-08-02T09:19:27.475Z,22.41
2022-08-02T09:22:08.419Z,22.52
2022-08-02T09:24:50.114Z,22.60
2022-08-02T09:27:27.386Z,22.65
2022-08-02T09:30:13.661Z,22.77
2022-08-02T09:32:52.878Z,22.89
2022-08-02T09:36:06.077Z,22.99
2022-08-02T09:38:35.836Z,23.04
2022-08-02T09:41:26.410Z,23.14
2022-08-02T09:44:06.654Z,23.15
2022-08-02T09:46:46.327Z,23.24
2022-08-02T09:49:23.610Z,23.32
2022-08-02T09:52:01.335Z,23.40
2022-08-02T09:54:38.747Z,23.57
2022-08-02T09:57:33.835Z,23.59
2022-08-02T10:00:13.972Z,23.66
2022-08-02T10:03:16.659Z,23.71
2022-08-02T10:06:03.092Z,23.77
2022-08-02T10:08:40.284Z,23.85
2022-08-02T10:11:17.451Z,23.96
2022-08-02T10:13:57.540Z,24.04
2022-08-02T10:16:36.431Z,24.11
2022-08-02T10:19:14.108Z,24.19
2022-08-02T10:21:59.972Z,24.23
2022-08-02T10:24:40.167Z,24.28
2022-08-02T10:27:26.601Z,24.37
2022-08-02T10:30:06.711Z,24.48
2022-08-02T10:32:49.030Z,24.54
2022-08-02T10:35:28.330Z,24.70
2022-08-02T10:38:08.859Z,24.74
2022-08-02T10:40:51.151Z,24.83
2022-08-02T10:43:52.260Z,24.82
2022-08-02T10:46:36.180Z,24.96
2022-08-02T10:52:14.102Z,24.97
2022-08-02T10:55:00.131Z,25.09
2022-08-02T10:57:38.017Z,25.23
2022-08-02T11:00:30.471Z,25.38
2022-08-02T11:03:29.865Z,25.50
2022-08-02T11:06:09.671Z,25.67
2022-08-02T11:09:32.940Z,25.83
2022-08-02T11:12:12.829Z,25.92
2022-08-02T11:15:07.851Z,25.97
2022-08-02T11:17:57.131Z,26.10
2022-08-02T11:20:36.720Z,26.26
2022-08-02T11:23:44.047Z,26.38
2022-08-02T11:26:49.849Z,26.46
2022-08-02T11:29:38.294Z,26.60
2022-08-02T11:32:22.684Z,26.65
2022-08-02T11:35:09.952Z,26.69
2022-08-02T11:37:49.653Z,26.66
2022-08-02T11:40:32.469Z,26.67
2022-08-02T11:43:25.079Z,26.79
2022-08-02T11:46:06.019Z,26.83
2022-08-02T11:48:44.771Z,26.85
2022-08-02T11:51:22.750Z,26.90
2022-08-02T11:54:02.210Z,26.83
2022-08-02T11:56:39.351Z,26.93
2022-08-02T11:59:16.060Z,27.08
2022-08-02T12:01:53.350Z,27.13
2022-08-02T12:04:30.139Z,27.10
2022-08-02T12:07:11.256Z,27.05
2022-08-02T12:09:50.590Z,26.90
2022-08-02T12:12:27.646Z,26.86
2022-08-02T12:15:04.349Z,26.89
2022-08-02T12:17:54.037Z,26.99
2022-08-02T12:20:40.511Z,27.07
2022-08-02T12:23:17.750Z,27.18
2022-08-02T12:26:16.023Z,27.12
2022-08-02T12:29:01.767Z,27.36
2022-08-02T12:31:57.024Z,27.58
2022-08-02T12:34:37.587Z,27.73
2022-08-02T12:37:15.362Z,28.09
2022-08-02T12:39:54.290Z,28.24
2022-08-02T12:42:49.129Z,28.19
2022-08-02T12:45:26.922Z,28.16
2022-08-02T12:48:15.518Z,28.43
2022-08-02T12:50:52.687Z,28.33
2022-08-02T12:53:36.879Z,28.07
2022-08-02T12:56:14.091Z,27.85
2022-08-02T12:58:55.781Z,27.48
2022-08-02T13:01:34.319Z,27.22
2022-08-02T13:04:13.930Z,27.35
2022-08-02T13:06:51.380Z,27.44
2022-08-02T13:09:29.504Z,27.53
2022-08-02T13:12:07.433Z,27.51
2022-08-02T13:14:46.841Z,27.58
2022-08-02T13:17:23.919Z,27.67
2022-08-02T13:20:00.582Z,27.97
2022-08-02T13:22:42.765Z,28.26
2022-08-02T13:25:29.760Z,28.28
2022-08-02T13:28:06.919Z,28.20
2022-08-02T13:30:46.684Z,28.23
2022-08-02T13:33:24.591Z,29.04
2022-08-02T13:36:01.292Z,30.10
2022-08-02T13:38:38.402Z,31.05
2022-08-02T13:41:15.060Z,31.43
2022-08-02T13:43:54.858Z,31.16
2022-08-02T13:46:36.967Z,31.11
2022-08-02T13:49:18.958Z,31.47
2022-08-02T13:51:56.860Z,31.47
2022-08-02T13:54:34.090Z,31.99
2022-08-02T13:57:10.901Z,31.68
2022-08-02T13:59:57.740Z,31.54
2022-08-02T14:02:40.438Z,31.61
2022-08-02T14:05:18.123Z,31.54
2022-08-02T14:08:16.920Z,30.89
2022-08-02T14:10:55.040Z,31.03
2022-08-02T14:13:36.294Z,30.93
2022-08-02T14:16:14.103Z,30.87
2022-08-02T14:18:53.651Z,31.13
2022-08-02T14:21:30.741Z,31.16
2022-08-02T14:24:25.640Z,31.17
2022-08-02T14:27:02.730Z,31.29
2022-08-02T14:29:39.612Z,31.43
2022-08-02T14:32:16.983Z,31.45
2022-08-02T14:34:56.536Z,31.57
2022-08-02T14:37:37.182Z,31.38
2022-08-02T14:40:31.249Z,30.98
2022-08-02T14:43:08.987Z,30.61
2022-08-02T14:45:46.704Z,30.45
2022-08-02T14:48:23.810Z,30.06
2022-08-02T14:51:03.278Z,29.81
2022-08-02T14:53:49.449Z,29.56
2022-08-02T14:56:37.312Z,29.26
2022-08-02T14:59:14.980Z,29.02
2022-08-02T15:01:51.814Z,28.88
2022-08-02T15:04:39.063Z,28.79
2022-08-02T15:07:23.192Z,28.52
2022-08-02T15:10:00.335Z,28.37
2022-08-02T15:12:37.071Z,28.10
2022-08-02T15:15:14.448Z,27.94
2022-08-02T15:17:51.255Z,27.84
2022-08-02T15:20:28.493Z,27.60
2022-08-02T15:23:07.873Z,27.40
2022-08-02T15:25:47.096Z,27.23
2022-08-02T15:28:24.030Z,27.18
2022-08-02T15:31:01.651Z,26.90
2022-08-02T15:33:38.563Z,26.87
2022-08-02T15:36:16.329Z,26.76
2022-08-02T15:38:55.601Z,26.64
2022-08-02T15:41:32.770Z,26.41
2022-08-02T15:44:14.280Z,26.34
2022-08-02T15:46:52.026Z,26.22
2022-08-02T15:49:29.595Z,26.09
2022-08-02T15:52:07.470Z,26.06
2022-08-02T15:54:46.871Z,26.06
2022-08-02T15:57:23.930Z,25.98
2022-08-02T16:00:00.680Z,25.96
2022-08-02T16:02:37.681Z,25.93
2022-08-02T16:05:14.490Z,25.84
2022-08-02T16:07:51.669Z,25.66
2022-08-02T16:10:31.049Z,25.59
2022-08-02T16:13:23.200Z,25.46
2022-08-02T16:16:01.245Z,25.42
2022-08-02T16:18:38.312Z,25.34
2022-08-02T16:21:15.048Z,25.26
2022-08-02T16:23:58.646Z,25.21
2022-08-02T16:26:41.510Z,25.16
2022-08-02T16:29:20.128Z,25.12
2022-08-02T16:31:56.882Z,25.06
2022-08-02T16:34:50.680Z,24.97
2022-08-02T16:37:50.275Z,24.87
2022-08-02T16:40:27.932Z,24.70
2022-08-02T16:43:09.241Z,24.66
2022-08-02T16:45:46.369Z,24.61
2022-08-02T16:51:01.130Z,24.42
2022-08-02T16:54:00.128Z,24.41
2022-08-02T16:56:35.189Z,24.30
2022-08-02T16:59:17.851Z,24.28
2022-08-02T17:02:11.959Z,24.26
2022-08-02T17:04:52.012Z,24.23
2022-08-02T17:08:07.209Z,24.19
2022-08-02T17:10:27.649Z,24.19
2022-08-02T17:13:11.240Z,24.07
2022-08-02T17:16:16.375Z,24.02
2022-08-02T17:18:49.486Z,23.94
2022-08-02T17:21:27.670Z,23.78
2022-08-02T17:24:08.131Z,23.75
2022-08-02T17:26:45.946Z,23.71
2022-08-02T17:29:24.561Z,23.56
2022-08-02T17:32:12.804Z,23.47
2022-08-02T17:34:59.786Z,23.39
2022-08-02T17:37:41.564Z,23.29
2022-08-02T17:40:19.928Z,23.22
2022-08-02T17:42:56.832Z,23.15
2022-08-02T17:46:00.016Z,23.10
2022-08-02T17:48:55.683Z,22.97
2022-08-02T17:52:48.851Z,22.87
2022-08-02T17:54:29.722Z,22.79
2022-08-02T17:57:07.955Z,22.59
2022-08-02T17:59:45.229Z,22.48
2022-08-02T18:02:41.910Z,22.38
2022-08-02T18:05:21.580Z,22.38
2022-08-02T18:08:01.049Z,22.36
2022-08-02T18:10:39.620Z,22.29
2022-08-02T18:13:16.915Z,22.28
2022-08-02T18:15:57.213Z,22.24
2022-08-02T18:18:36.179Z,22.17
2022-08-02T18:21:22.816Z,22.06
2022-08-02T18:24:00.543Z,21.92
2022-08-02T18:26:39.041Z,21.86
2022-08-02T18:29:20.505Z,21.77
2022-08-02T18:31:57.979Z,21.76
2022-08-02T18:34:36.360Z,21.70
2022-08-02T18:37:18.601Z,21.56
2022-08-02T18:39:55.609Z,21.51
2022-08-02T18:42:32.249Z,21.42
2022-08-02T18:45:19.864Z,21.38
2022-08-02T18:47:57.147Z,21.36
2022-08-02T18:50:42.079Z,21.25
2022-08-02T18:53:39.057Z,21.24
2022-08-02T18:56:20.460Z,21.19
2022-08-02T18:59:03.098Z,21.17
2022-08-02T19:01:46.798Z,21.11
2022-08-02T19:04:27.778Z,21.08
2022-08-02T19:07:08.193Z,21.00
2022-08-02T19:09:48.311Z,20.99
2022-08-02T19:12:27.906Z,20.92
2022-08-02T19:15:04.929Z,20.89
2022-08-02T19:17:55.103Z,20.84
2022-08-02T19:20:34.970Z,20.80
2022-08-02T19:23:17.244Z,20.75
2022-08-02T19:25:57.209Z,20.72
2022-08-02T19:28:34.640Z,20.66
2022-08-02T19:31:12.186Z,20.61
2022-08-02T19:34:05.853Z,20.46
2022-08-02T19:36:44.918Z,20.25
2022-08-02T19:39:22.619Z,20.05
2022-08-02T19:42:06.690Z,19.87
2022-08-02T19:44:45.769Z,19.69
2022-08-02T19:47:22.901Z,19.49
2022-08-02T19:50:01.732Z,19.35
